createdAt,value
2022-11-04T00:01:04.112Z,95.40
2022-11-04T00:03:31.255Z,95.40
2022-11-04T00:06:01.431Z,95.40
2022-11-04T00:08:28.557Z,95.40
2022-11-04T00:11:19.578Z,95.40
2022-11-04T00:13:47.492Z,95.50
2022-11-04T00:16:33.737Z,95.50
2022-11-04T00:19:03.614Z,95.50
2022-11-04T00:21:56.865Z,95.70
2022-11-04T00:24:42.538Z,95.70
2022-11-04T00:27:32.705Z,95.80
2022-11-04T00:30:00.260Z,95.60
2022-11-04T00:32:46.912Z,95.70
2022-11-04T00:35:14.217Z,95.70
2022-11-04T00:37:42.997Z,95.70
2022-11-04T00:40:12.983Z,95.70
2022-11-04T00:42:41.187Z,95.50
2022-11-04T00:45:08.808Z,95.40
2022-11-04T00:47:35.955Z,95.50
2022-11-04T00:50:03.428Z,95.60
2022-11-04T00:52:30.554Z,95.60
2022-11-04T00:54:57.740Z,95.50
2022-11-04T00:57:24.872Z,95.50
2022-11-04T00:59:51.954Z,95.50
2022-11-04T01:02:19.215Z,95.50
2022-11-04T01:04:47.390Z,95.70
2022-11-04T01:07:14.727Z,95.80
2022-11-04T01:09:41.833Z,95.80
2022-11-04T01:12:09.090Z,95.80
2022-11-04T01:14:36.233Z,95.50
2022-11-04T01:17:03.342Z,95.80
2022-11-04T01:19:31.034Z,95.90
2022-11-04T01:21:58.263Z,96.00
2022-11-04T01:24:25.528Z,96.00
2022-11-04T01:26:52.610Z,95.80
2022-11-04T01:29:19.683Z,95.70
2022-11-04T01:31:47.007Z,95.60
2022-11-04T01:34:14.378Z,95.60
2022-11-04T01:36:41.525Z,95.50
2022-11-04T01:39:09.612Z,95.50
2022-11-04T01:41:36.771Z,95.50
2022-11-04T01:44:25.644Z,95.50
2022-11-04T01:46:54.430Z,95.50
2022-11-04T01:49:33.272Z,95.50
2022-11-04T01:52:08.798Z,95.30
2022-11-04T01:54:37.962Z,95.30
2022-11-04T01:57:13.344Z,95.30
2022-11-04T01:59:42.367Z,95.30
2022-11-04T02:02:09.666Z,95.20
2022-11-04T02:04:38.404Z,95.30
2022-11-04T02:07:09.665Z,95.30
2022-11-04T02:09:38.592Z,95.20
2022-11-04T02:12:24.934Z,95.20
2022-11-04T02:14:53.375Z,95.20
2022-11-04T02:17:20.336Z,95.30
2022-11-04T02:20:11.166Z,95.30
2022-11-04T02:23:00.036Z,95.30
2022-11-04T02:25:48.907Z,95.30
2022-11-04T02:28:47.086Z,95.30
2022-11-04T02:31:38.736Z,95.30
2022-11-04T02:34:34.180Z,95.20
2022-11-04T02:37:19.383Z,95.10
2022-11-04T02:40:06.136Z,95.10
2022-11-04T02:42:42.448Z,95.10
2022-11-04T02:45:32.876Z,95.10
2022-11-04T02:48:13.674Z,95.10
2022-11-04T02:50:51.704Z,95.00
2022-11-04T02:53:38.449Z,95.00
2022-11-04T02:56:07.445Z,95.10
2022-11-04T02:58:40.516Z,95.00
2022-11-04T03:01:12.096Z,95.10
2022-11-04T03:03:42.810Z,95.10
2022-11-04T03:06:11.900Z,95.10
2022-11-04T03:08:44.078Z,95.00
2022-11-04T03:11:14.737Z,95.00
2022-11-04T03:13:59.671Z,95.00
2022-11-04T03:16:42.712Z,94.90
2022-11-04T03:19:15.662Z,95.00
2022-11-04T03:22:12.227Z,95.00
2022-11-04T03:24:40.001Z,95.10
2022-11-04T03:27:25.563Z,95.00
2022-11-04T03:30:06.710Z,94.90
2022-11-04T03:32:58.888Z,95.00
2022-11-04T03:35:28.044Z,95.00
2022-11-04T03:37:55.476Z,94.90
2022-11-04T03:40:22.957Z,94.90
2022-11-04T03:43:13.292Z,95.00
2022-11-04T03:45:42.444Z,95.10
2022-11-04T03:48:10.225Z,95.10
2022-11-04T03:50:47.705Z,95.00
2022-11-04T03:53:21.713Z,95.00
2022-11-04T03:56:37.046Z,94.90
2022-11-04T03:59:19.102Z,94.90
2022-11-04T04:01:56.863Z,94.90
2022-11-04T04:04:31.192Z,94.80
2022-11-04T04:07:13.731Z,94.80
2022-11-04T04:09:45.984Z,94.90
2022-11-04T04:12:16.228Z,94.80
2022-11-04T04:14:51.632Z,94.80
2022-11-04T04:17:32.735Z,94.80
2022-11-04T04:20:03.532Z,94.90
2022-11-04T04:22:36.803Z,94.90
2022-11-04T04:25:25.961Z,94.90
2022-11-04T04:27:55.562Z,95.00
2022-11-04T04:30:23.146Z,95.00
2022-11-04T04:32:58.229Z,95.00
2022-11-04T04:35:49.450Z,95.00
2022-11-04T04:38:48.065Z,95.00
2022-11-04T04:41:44.871Z,95.10
2022-11-04T04:44:37.279Z,95.20
2022-11-04T04:47:06.803Z,95.10
2022-11-04T04:49:35.412Z,95.30
2022-11-04T04:52:05.118Z,95.30
2022-11-04T04:54:32.183Z,95.30
2022-11-04T04:56:59.256Z,95.30
2022-11-04T04:59:26.455Z,95.30
2022-11-04T05:01:53.751Z,95.30
2022-11-04T05:04:20.949Z,95.20
2022-11-04T05:06:48.197Z,95.40
2022-11-04T05:09:15.303Z,95.80
2022-11-04T05:11:42.390Z,95.60
2022-11-04T05:14:09.532Z,95.50
2022-11-04T05:16:40.561Z,95.50
2022-11-04T05:19:08.372Z,95.60
2022-11-04T05:21:35.719Z,95.60
2022-11-04T05:24:02.848Z,95.60
2022-11-04T05:26:30.124Z,95.60
2022-11-04T05:28:57.213Z,95.70
2022-11-04T05:31:24.377Z,95.80
2022-11-04T05:33:51.681Z,95.80
2022-11-04T05:36:18.798Z,95.90
2022-11-04T05:38:51.110Z,95.90
2022-11-04T05:41:28.197Z,96.00
2022-11-04T05:44:00.227Z,96.10
2022-11-04T05:46:28.440Z,96.20
2022-11-04T05:48:55.885Z,96.20
2022-11-04T05:51:27.403Z,96.20
2022-11-04T05:53:55.292Z,96.30
2022-11-04T05:56:22.413Z,96.30
2022-11-04T05:58:52.696Z,96.20
2022-11-04T06:01:32.742Z,96.30
2022-11-04T06:04:03.279Z,96.20
2022-11-04T06:06:32.695Z,96.30
2022-11-04T06:09:00.439Z,96.30
2022-11-04T06:11:29.848Z,96.10
2022-11-04T06:13:57.965Z,96.10
2022-11-04T06:16:25.585Z,96.00
2022-11-04T06:18:53.537Z,96.00
2022-11-04T06:21:29.802Z,96.00
2022-11-04T06:24:00.451Z,96.00
2022-11-04T06:26:29.369Z,96.10
2022-11-04T06:28:57.479Z,96.00
2022-11-04T06:31:25.310Z,96.30
2022-11-04T06:34:04.092Z,96.00
2022-11-04T06:36:34.124Z,95.80
2022-11-04T06:39:26.913Z,95.80
2022-11-04T06:41:59.797Z,95.70
2022-11-04T06:44:35.642Z,95.80
2022-11-04T06:47:24.408Z,95.90
2022-11-04T06:49:58.052Z,95.90
2022-11-04T06:52:25.620Z,95.90
2022-11-04T06:54:52.791Z,96.10
2022-11-04T06:57:20.001Z,95.90
2022-11-04T06:59:47.441Z,96.10
2022-11-04T07:02:14.535Z,96.00
2022-11-04T07:04:44.682Z,95.90
2022-11-04T07:07:12.748Z,95.90
2022-11-04T07:09:39.932Z,95.80
2022-11-04T07:12:07.149Z,95.80
2022-11-04T07:14:34.508Z,95.70
2022-11-04T07:17:02.091Z,95.70
2022-11-04T07:19:29.169Z,95.40
2022-11-04T07:21:56.338Z,95.70
2022-11-04T07:24:23.812Z,95.60
2022-11-04T07:26:51.315Z,95.60
2022-11-04T07:33:04.213Z,95.70
2022-11-04T07:35:35.448Z,95.50
2022-11-04T07:38:04.381Z,95.40
2022-11-04T07:40:41.298Z,95.50
2022-11-04T07:43:10.028Z,95.50
2022-11-04T07:45:38.877Z,95.40
2022-11-04T07:48:06.536Z,95.50
2022-11-04T07:50:34.155Z,95.40
2022-11-04T07:53:01.471Z,95.40
2022-11-04T07:55:28.874Z,95.30
2022-11-04T07:57:56.108Z,95.30
2022-11-04T08:00:24.081Z,95.40
2022-11-04T08:03:03.468Z,95.20
2022-11-04T08:06:05.044Z,95.10
2022-11-04T08:08:43.580Z,95.10
2022-11-04T08:11:30.096Z,95.10
2022-11-04T08:13:57.371Z,95.10
2022-11-04T08:16:28.786Z,95.00
2022-11-04T08:19:03.603Z,95.10
2022-11-04T08:21:33.289Z,95.00
2022-11-04T08:24:04.094Z,95.00
2022-11-04T08:26:32.017Z,95.00
2022-11-04T08:29:00.933Z,95.00
2022-11-04T08:31:30.638Z,94.90
2022-11-04T08:33:57.793Z,95.00
2022-11-04T08:36:26.928Z,94.80
2022-11-04T08:38:55.132Z,94.70
2022-11-04T08:41:25.770Z,94.80
2022-11-04T08:43:57.102Z,95.10
2022-11-04T08:46:35.876Z,94.70
2022-11-04T08:49:09.483Z,94.70
2022-11-04T08:51:41.103Z,94.60
2022-11-04T08:54:08.870Z,94.60
2022-11-04T08:56:48.237Z,94.60
2022-11-04T08:59:15.663Z,94.70
2022-11-04T09:01:44.137Z,94.60
2022-11-04T09:04:12.674Z,94.70
2022-11-04T09:06:43.456Z,94.70
2022-11-04T09:09:16.213Z,94.60
2022-11-04T09:11:46.976Z,94.50
2022-11-04T09:14:14.723Z,94.60
2022-11-04T09:16:42.698Z,94.60
2022-11-04T09:19:09.885Z,94.60
2022-11-04T09:21:37.216Z,94.70
2022-11-04T09:24:05.123Z,94.90
2022-11-04T09:26:33.257Z,94.90
2022-11-04T09:29:00.806Z,95.00
2022-11-04T09:31:30.756Z,95.20
2022-11-04T09:33:57.921Z,95.20
2022-11-04T09:36:26.168Z,95.30
2022-11-04T09:38:53.317Z,95.30
2022-11-04T09:41:39.278Z,95.30
2022-11-04T09:44:21.010Z,95.30
2022-11-04T09:46:50.197Z,95.40
2022-11-04T09:49:17.386Z,95.50
2022-11-04T09:51:54.486Z,95.40
2022-11-04T09:54:24.314Z,95.40
2022-11-04T09:56:53.623Z,95.60
2022-11-04T09:59:33.944Z,95.60
2022-11-04T10:02:19.163Z,95.60
2022-11-04T10:05:14.710Z,95.60
2022-11-04T10:07:50.389Z,95.60
2022-11-04T10:10:23.470Z,95.60
2022-11-04T10:12:54.644Z,95.70
2022-11-04T10:16:03.132Z,95.70
2022-11-04T10:18:51.908Z,95.70
2022-11-04T10:21:46.128Z,96.00
2022-11-04T10:24:16.161Z,95.90
2022-11-04T10:26:54.884Z,96.00
2022-11-04T10:30:09.086Z,96.00
2022-11-04T10:32:53.124Z,96.00
2022-11-04T10:35:36.080Z,96.10
2022-11-04T10:38:14.646Z,96.20
2022-11-04T10:40:43.021Z,96.30
2022-11-04T10:43:15.916Z,96.40
2022-11-04T10:45:55.542Z,96.30
2022-11-04T10:48:38.318Z,96.30
2022-11-04T10:51:05.828Z,96.30
2022-11-04T10:53:33.821Z,96.40
2022-11-04T10:56:24.020Z,96.40
2022-11-04T10:58:51.183Z,96.50
2022-11-04T11:01:34.284Z,96.70
2022-11-04T11:04:08.741Z,96.70
2022-11-04T11:06:37.306Z,96.90
2022-11-04T11:09:28.370Z,97.00
2022-11-04T11:12:48.649Z,97.00
2022-11-04T11:15:30.152Z,97.00
2022-11-04T11:18:22.490Z,97.10
2022-11-04T11:21:14.501Z,97.20
2022-11-04T11:23:51.300Z,97.30
2022-11-04T11:26:29.712Z,97.30
2022-11-04T11:29:02.572Z,97.50
2022-11-04T11:31:40.496Z,97.60
2022-11-04T11:34:20.922Z,97.70
2022-11-04T11:36:49.932Z,97.80
2022-11-04T11:39:23.146Z,97.90
2022-11-04T11:42:13.030Z,98.00
2022-11-04T11:44:49.315Z,98.10
2022-11-04T11:47:16.451Z,98.10
2022-11-04T11:49:43.612Z,98.20
2022-11-04T11:52:23.144Z,98.30
2022-11-04T11:54:54.500Z,98.50
2022-11-04T11:57:25.688Z,98.60
2022-11-04T12:03:18.018Z,98.50
2022-11-04T12:09:38.374Z,98.80
2022-11-04T12:12:21.013Z,98.90
2022-11-04T12:15:25.642Z,99.00
2022-11-04T12:18:32.331Z,99.20
2022-11-04T12:21:13.021Z,99.20
2022-11-04T12:24:02.408Z,99.50
2022-11-04T12:26:36.894Z,99.60
2022-11-04T12:29:49.947Z,99.60
2022-11-04T12:32:36.292Z,99.80
2022-11-04T12:35:31.181Z,99.90
2022-11-04T12:38:23.526Z,99.90
2022-11-04T12:44:42.255Z,99.90
2022-11-04T12:47:44.881Z,99.90
2022-11-04T12:50:33.719Z,99.90
2022-11-04T12:53:07.336Z,99.90
2022-11-04T12:56:07.867Z,99.90
2022-11-04T12:58:41.255Z,99.90
2022-11-04T13:01:22.006Z,99.90
2022-11-04T13:03:54.811Z,99.90
2022-11-04T13:06:33.927Z,99.90
2022-11-04T13:09:25.755Z,99.90
2022-11-04T13:12:11.547Z,99.90
2022-11-04T13:15:11.234Z,99.90
2022-11-04T13:17:41.604Z,99.90
2022-11-04T13:20:14.371Z,99.90
2022-11-04T13:22:45.729Z,99.90
2022-11-04T13:25:28.335Z,99.90
2022-11-04T13:27:56.970Z,99.90
2022-11-04T13:30:29.900Z,99.90
2022-11-04T13:33:03.466Z,99.90
2022-11-04T13:35:40.363Z,99.90
2022-11-04T13:38:13.364Z,99.90
2022-11-04T13:40:49.559Z,99.90
2022-11-04T13:43:39.030Z,99.90
2022-11-04T13:46:19.419Z,99.90
2022-11-04T13:48:58.449Z,99.90
2022-11-04T13:51:35.594Z,99.90
2022-11-04T13:54:03.362Z,99.90
2022-11-04T13:56:37.018Z,99.90
2022-11-04T13:59:26.755Z,99.90
2022-11-04T14:02:12.345Z,99.90
2022-11-04T14:04:43.947Z,99.90
2022-11-04T14:07:15.945Z,99.90
2022-11-04T14:09:43.030Z,99.90
2022-11-04T14:12:14.328Z,99.90
2022-11-04T14:14:53.172Z,99.90
2022-11-04T14:17:35.811Z,99.90
2022-11-04T14:20:09.221Z,99.90
2022-11-04T14:22:56.918Z,99.90
2022-11-04T14:25:30.310Z,99.90
2022-11-04T14:28:09.566Z,99.90
2022-11-04T14:31:04.544Z,99.90
2022-11-04T14:33:40.686Z,99.90
2022-11-04T14:36:17.483Z,99.90
2022-11-04T14:38:51.739Z,99.90
2022-11-04T14:41:39.760Z,99.90
2022-11-04T14:44:13.053Z,99.90
2022-11-04T14:46:46.544Z,99.90
2022-11-04T14:49:41.127Z,99.90
2022-11-04T14:52:17.397Z,99.90
2022-11-04T14:54:44.772Z,99.90
2022-11-04T14:57:21.025Z,99.90
2022-11-04T14:59:52.265Z,99.90
2022-11-04T15:02:31.532Z,99.90
2022-11-04T15:05:01.188Z,99.90
2022-11-04T15:07:31.347Z,99.90
2022-11-04T15:09:58.807Z,99.90
2022-11-04T15:12:44.655Z,99.90
2022-11-04T15:15:30.798Z,99.90
2022-11-04T15:18:12.584Z,99.90
2022-11-04T15:21:06.331Z,99.90
2022-11-04T15:23:46.776Z,99.90
2022-11-04T15:26:30.173Z,99.90
2022-11-04T15:29:00.647Z,99.90
2022-11-04T15:31:32.799Z,99.90
2022-11-04T15:34:03.035Z,99.90
2022-11-04T15:36:36.406Z,99.90
2022-11-04T15:39:34.715Z,99.90
2022-11-04T15:42:24.744Z,99.90
2022-11-04T15:44:54.221Z,99.90
2022-11-04T15:47:27.348Z,99.30
2022-11-04T15:50:03.236Z,97.40
2022-11-04T15:52:30.608Z,98.10
2022-11-04T15:54:59.677Z,97.70
2022-11-04T15:57:38.328Z,98.00
2022-11-04T16:00:25.015Z,97.70
2022-11-04T16:02:57.978Z,96.30
2022-11-04T16:05:30.248Z,96.60
2022-11-04T16:08:27.495Z,97.20
2022-11-04T16:11:19.218Z,97.20
2022-11-04T16:13:47.372Z,97.10
2022-11-04T16:16:26.211Z,97.30
2022-11-04T16:18:58.594Z,97.40
2022-11-04T16:21:31.315Z,96.50
2022-11-04T16:24:01.500Z,96.60
2022-11-04T16:26:38.664Z,96.50
2022-11-04T16:29:22.118Z,96.70
2022-11-04T16:32:12.549Z,96.60
2022-11-04T16:34:43.285Z,96.40
2022-11-04T16:37:10.803Z,97.00
2022-11-04T16:39:41.103Z,97.20
2022-11-04T16:42:10.438Z,97.20
2022-11-04T16:44:37.781Z,97.30
2022-11-04T16:47:05.172Z,97.20
2022-11-04T16:49:32.951Z,97.40
2022-11-04T16:52:09.337Z,97.20
2022-11-04T16:54:36.420Z,97.10
2022-11-04T16:57:06.949Z,97.40
2022-11-04T16:59:34.167Z,97.30
2022-11-04T17:02:01.381Z,97.20
2022-11-04T17:04:29.414Z,96.60
2022-11-04T17:06:56.536Z,97.10
2022-11-04T17:09:23.944Z,97.40
2022-11-04T17:11:51.118Z,97.50
2022-11-04T17:14:18.439Z,97.00
2022-11-04T17:16:45.576Z,96.20
2022-11-04T17:19:15.746Z,95.90
2022-11-04T17:21:45.717Z,94.70
2022-11-04T17:24:13.728Z,93.70
2022-11-04T17:26:40.910Z,93.70
2022-11-04T17:29:14.421Z,93.60
2022-11-04T17:31:44.532Z,93.60
2022-11-04T17:34:11.835Z,93.60
2022-11-04T17:36:39.257Z,93.30
2022-11-04T17:39:06.449Z,93.00
2022-11-04T17:41:52.135Z,93.20
2022-11-04T17:44:19.439Z,93.00
2022-11-04T17:46:48.841Z,92.50
2022-11-04T17:49:21.462Z,92.90
2022-11-04T17:51:51.243Z,92.20
2022-11-04T17:54:18.438Z,91.70
2022-11-04T17:56:45.959Z,92.10
2022-11-04T17:59:14.809Z,92.30
2022-11-04T18:01:43.366Z,92.80
2022-11-04T18:04:16.085Z,92.20
2022-11-04T18:06:44.720Z,91.90
2022-11-04T18:09:12.723Z,92.20
2022-11-04T18:11:58.567Z,92.60
2022-11-04T18:14:25.818Z,92.80
2022-11-04T18:16:53.506Z,92.00
2022-11-04T18:19:22.607Z,92.00
2022-11-04T18:21:51.175Z,91.90
2022-11-04T18:24:19.433Z,91.40
2022-11-04T18:26:47.199Z,92.20
2022-11-04T18:29:14.625Z,91.50
2022-11-04T18:31:47.816Z,91.20
2022-11-04T18:34:19.489Z,91.60
2022-11-04T18:36:48.159Z,91.40
2022-11-04T18:39:17.592Z,91.60
2022-11-04T18:41:45.855Z,91.80
2022-11-04T18:44:16.621Z,91.60
2022-11-04T18:46:46.878Z,91.60
2022-11-04T18:49:15.457Z,90.90
2022-11-04T18:51:42.854Z,91.60
2022-11-04T18:54:11.159Z,91.10
2022-11-04T18:56:38.278Z,91.50
2022-11-04T18:59:09.175Z,91.70
2022-11-04T19:01:36.579Z,91.30
2022-11-04T19:04:03.928Z,91.00
2022-11-04T19:06:36.873Z,90.90
2022-11-04T19:09:40.194Z,90.80
2022-11-04T19:12:15.360Z,90.60
2022-11-04T19:14:42.515Z,90.20
2022-11-04T19:17:09.803Z,90.60
2022-11-04T19:19:37.032Z,90.40
2022-11-04T19:22:04.374Z,90.70
2022-11-04T19:24:31.483Z,90.80
2022-11-04T19:26:58.689Z,90.80
2022-11-04T19:29:26.088Z,90.60
2022-11-04T19:31:53.706Z,90.30
2022-11-04T19:34:21.223Z,90.20
2022-11-04T19:36:48.626Z,90.60
2022-11-04T19:39:15.829Z,90.40
2022-11-04T19:42:15.253Z,90.70
2022-11-04T19:44:42.437Z,90.60
2022-11-04T19:47:09.791Z,90.40
2022-11-04T19:49:36.947Z,90.30
2022-11-04T19:52:04.662Z,90.40
2022-11-04T19:54:32.565Z,90.30
2022-11-04T19:56:59.798Z,90.50
2022-11-04T19:59:26.964Z,90.40
2022-11-04T20:01:54.210Z,90.40
2022-11-04T20:04:21.478Z,90.40
2022-11-04T20:06:48.658Z,90.60
2022-11-04T20:09:15.804Z,90.00
2022-11-04T20:12:03.074Z,90.10
2022-11-04T20:14:30.326Z,90.80
2022-11-04T20:16:57.775Z,90.70
2022-11-04T20:19:24.908Z,91.00
2022-11-04T20:21:52.079Z,91.10
2022-11-04T20:24:19.367Z,91.00
2022-11-04T20:26:47.637Z,91.10
2022-11-04T20:29:17.810Z,91.20
2022-11-04T20:31:45.639Z,91.50
2022-11-04T20:34:14.258Z,91.50
2022-11-04T20:36:42.004Z,91.80
2022-11-04T20:39:15.316Z,91.90
2022-11-04T20:41:42.856Z,92.20
2022-11-04T20:44:14.623Z,92.30
2022-11-04T20:46:42.794Z,92.40
2022-11-04T20:49:10.947Z,92.30
2022-11-04T20:51:48.614Z,92.40
2022-11-04T20:54:18.023Z,92.40
2022-11-04T20:56:45.524Z,92.40
2022-11-04T20:59:14.109Z,92.50
2022-11-04T21:01:44.456Z,92.50
2022-11-04T21:04:18.988Z,92.50
2022-11-04T21:06:50.942Z,92.50
2022-11-04T21:09:20.917Z,92.50
2022-11-04T21:11:49.045Z,92.50
2022-11-04T21:14:19.435Z,92.30
2022-11-04T21:16:47.675Z,92.40
2022-11-04T21:19:16.217Z,92.00
2022-11-04T21:21:44.373Z,92.10
2022-11-04T21:24:13.790Z,91.70
2022-11-04T21:26:41.314Z,91.80
2022-11-04T21:29:13.080Z,92.00
2022-11-04T21:31:41.220Z,92.00
2022-11-04T21:34:08.491Z,92.00
2022-11-04T21:36:36.391Z,92.00
2022-11-04T21:39:03.971Z,92.10
2022-11-04T21:41:37.394Z,92.10
2022-11-04T21:44:09.649Z,92.20
2022-11-04T21:46:37.078Z,92.60
2022-11-04T21:49:04.769Z,92.80
2022-11-04T21:51:33.615Z,92.70
2022-11-04T21:54:00.890Z,92.80
2022-11-04T21:56:29.953Z,92.80
2022-11-04T21:58:57.224Z,93.00
2022-11-04T22:01:27.248Z,93.00
2022-11-04T22:03:59.417Z,93.00
2022-11-04T22:06:34.728Z,93.10
2022-11-04T22:09:05.295Z,93.10
2022-11-04T22:11:34.186Z,93.20
2022-11-04T22:14:04.798Z,93.40
2022-11-04T22:16:34.426Z,93.40
2022-11-04T22:19:04.033Z,93.30
2022-11-04T22:21:32.266Z,93.30
2022-11-04T22:24:00.133Z,93.20
2022-11-04T22:26:30.077Z,93.20
2022-11-04T22:28:58.154Z,93.10
2022-11-04T22:31:34.480Z,93.10
2022-11-04T22:34:02.076Z,93.10
2022-11-04T22:36:31.245Z,93.40
2022-11-04T22:38:59.249Z,93.00
2022-11-04T22:41:29.469Z,93.00
2022-11-04T22:43:58.600Z,93.00
2022-11-04T22:46:31.440Z,92.80
2022-11-04T22:49:02.241Z,92.80
2022-11-04T22:51:31.387Z,92.80
2022-11-04T22:54:04.559Z,92.60
2022-11-04T22:56:35.052Z,92.70
2022-11-04T22:59:02.405Z,92.70
2022-11-04T23:01:31.743Z,92.70
2022-11-04T23:03:59.574Z,92.50
2022-11-04T23:06:26.788Z,92.50
2022-11-04T23:08:59.538Z,92.40
2022-11-04T23:11:46.914Z,92.40
2022-11-04T23:14:54.436Z,92.40
2022-11-04T23:17:41.376Z,92.40
2022-11-04T23:20:12.026Z,92.30
2022-11-04T23:22:58.157Z,92.30
2022-11-04T23:25:26.070Z,92.30
2022-11-04T23:28:13.252Z,92.10
2022-11-04T23:30:46.313Z,92.30
2022-11-04T23:33:15.077Z,92.40
2022-11-04T23:36:03.193Z,92.30
2022-11-04T23:38:31.334Z,92.40
2022-11-04T23:41:21.878Z,92.50
2022-11-04T23:43:49.197Z,92.60
2022-11-04T23:46:41.070Z,92.60
2022-11-04T23:49:30.141Z,92.60
2022-11-04T23:52:16.054Z,92.60
2022-11-04T23:55:01.575Z,92.60
2022-11-04T23:57:47.142Z,92.60
